KTEB/TEB METAR and TAF weather

Enter ICAO airport designator
Station Type Date Time Source
KTEB METAR 2021/05/14 13:51 UTC NOAA

KTEB 141351Z 08003KT 10SM CLR 19/04 A3023 RMK AO2 SLP236 T01890039


Station Type Date Time Source
KTEB Decoded METAR 2021/05/14 13:51 UTC NOAA

TETERBORO AIRPORT, NJ, United States (KTEB) 40-52N 74-03W 7M
May 14, 2021 - 09:51 AM EDT / 2021.05.14 1351 UTC
Wind: from the E (080 degrees) at 3 MPH (3 KT):0
Visibility: 10 mile(s):0
Sky conditions: clear
Temperature: 66.0 F (18.9 C)
Dew Point: 39.0 F (3.9 C)
Relative Humidity: 36%
Pressure (altimeter): 30.23 in. Hg (1023 hPa)
ob: KTEB 141351Z 08003KT 10SM CLR 19/04 A3023 RMK AO2 SLP236 T01890039
cycle: 14

Station Type Date Time Source
KTEB TAF 2021/05/14 12:28 UTC NOAA

TAF KTEB 141126Z 1412/1518 VRB03KT P6SM FEW090 FEW250
FM141500 35005KT P6SM FEW080 SCT250
FM142100 23007KT P6SM SCT080 SCT250
FM150200 VRB03KT P6SM FEW250

Example: see airport list